Details From SCEL - Arturo Merino Benitez Intl
To SCCF - EL LOA
Flight Number -
Tags decoded
Created
Modified
Stats Distance 711 nm / 1,317 km
Max Altitude 0 ft / 0 m
Waypoints 8
Social Downloads 0
Likes 0
Share VATSIM

Download

Looking for another format? Having issues loading an existing format? Contact us
Advertisement - Login to hide

Notes

Requested: SCEL DESIT ELBOS VTN TOY BARCA DAT SCCF

Route

SCEL DESIT ELBOS VTN TOY BARCA DAT SCCF

ID Type Via Altitude Latitude Longitude Leg Dist Tot Dist Heading (true) Name
O SCEL APT - 0 ft / 0 m -33.38978˚ -70.79437˚ - 0 nm - Arturo Merino Benitez Intl
DESIT FIX - 0 ft / 0 m -33.53663˚ -70.77951˚ 8 nm 8 nm 175° / 175° -
ELBOS FIX - 0 ft / 0 m -33.47500˚ -71.12278˚ 17 nm 26 nm 282° / 282° -
VTN VOR - 0 ft / 0 m -32.73861˚ -71.49611˚ 48 nm 74 nm 337° / 337° VENTANAS VOR-DME
TOY NDB - 0 ft / 0 m -30.26306˚ -71.47972˚ 148 nm 223 nm 0° / 0° TONGOY NDB
BARCA FIX - 0 ft / 0 m -29.81667˚ -71.43222˚ 26 nm 250 nm 5° / 5° -
DAT VOR - 0 ft / 0 m -27.27944˚ -70.77611˚ 156 nm 406 nm 13° / 13° ATACAMA VOR-DME
O SCCF APT - 0 ft / 0 m -22.49818˚ -68.90358˚ 304 nm 711 nm 20° / 19° EL LOA

Altitude Profile

Advertisement - Login to hide

Weather


0- 5 10 15 20 25 30 35+ Temperature / ° C

Clouds and Precipitation
Forecast for 2018-05-27 00:00 UTC. Updated 17 minutes ago

Ground ~20,000 ft ~40,000 ft Winds

SCEL

Details ICAO SCEL (SCL)
Name Arturo Merino Benitez Intl
Region Chile
Timezone America/Santiago (UTC-4.0)
Stats Elevation 1,550 ft / 472 m (AMSL)
Location -33.389775° -70.794366°
Runways 2
Magnetic Variation 1.732° E

METAR

SCEL 262300Z 31003KT 8000 NSC 09/04 Q1019 NOSIG

Decode

TAF

TAF SCEL 261630Z 2618/2718 20010KT 6000 BKN180 TX16/2619Z TN05/2711Z BECMG 2620/2622 8000 BECMG 2701/2703 17004KT CAVOK TEMPO 2706/2712 VRB02KT 5000 BR NSC BECMG 2716/2718 19010KT

Decode

Departure Runways

ID Width Length Bearing (true) Bearing (mag) Surface Threshold Offset Overrun Length
17L 180 ft / 55 m 10,523 ft / 3,207 m 177.43° 175.70° Asphalt 0 ft / 0 m 0 ft / 0 m
17R 148 ft / 45 m 12,504 ft / 3,811 m 177.44° 175.71° Asphalt 0 ft / 0 m 0 ft / 0 m
35L 148 ft / 45 m 12,504 ft / 3,811 m 357.44° 355.71° Asphalt 0 ft / 0 m 0 ft / 0 m
35R 180 ft / 55 m 10,523 ft / 3,207 m 357.43° 355.70° Asphalt 1,800 ft / 549 m 0 ft / 0 m

SCCF

Details ICAO SCCF (CJC)
Name EL LOA
Region Chile
Timezone America/Santiago (UTC-4.0)
Stats Elevation 7,543 ft / 2,299 m (AMSL)
Location -22.498175° -68.903575°
Runways 1
Magnetic Variation 5.349° W

METAR

SCCF 262300Z 29005KT CAVOK 15/M18 Q1027

Decode

TAF

TAF SCCF 261650Z 2618/2718 27015KT CAVOK TX23/2618Z TN03/2706Z BECMG 2702/2704 09015KT BECMG 2710/2712 12020KT BECMG 2716/2718 27015KT

Decode

Destination Runways

ID Width Length Bearing (true) Bearing (mag) Surface Threshold Offset Overrun Length
10 98 ft / 30 m 9,455 ft / 2,882 m 93.61° 98.96° Asphalt 0 ft / 0 m 100 ft / 30 m
28 98 ft / 30 m 9,455 ft / 2,882 m 273.60° 278.95° Asphalt 0 ft / 0 m 100 ft / 30 m

Popular Alternatives